sensor_id;sensor_type;location;lat;lon;timestamp;pressure;altitude;pressure_sealevel;temperature;humidity
21129;BME280;10722;51.910;8.352;2023-09-30T00:02:33;101733.03;;;13.09;100.00
21129;BME280;10722;51.910;8.352;2023-09-30T00:05:18;101734.75;;;13.07;100.00
21129;BME280;10722;51.910;8.352;2023-09-30T00:08:04;101734.84;;;13.11;100.00
21129;BME280;10722;51.910;8.352;2023-09-30T00:10:49;101738.25;;;13.09;100.00
21129;BME280;10722;51.910;8.352;2023-09-30T00:13:34;101738.38;;;13.15;100.00
21129;BME280;10722;51.910;8.352;2023-09-30T00:16:19;101746.16;;;13.13;100.00
21129;BME280;10722;51.910;8.352;2023-09-30T00:19:04;101743.09;;;12.95;100.00
21129;BME280;10722;51.910;8.352;2023-09-30T00:21:49;101740.22;;;12.83;100.00
21129;BME280;10722;51.910;8.352;2023-09-30T00:24:34;101732.56;;;12.87;100.00
21129;BME280;10722;51.910;8.352;2023-09-30T00:27:19;101736.59;;;12.76;100.00
21129;BME280;10722;51.910;8.352;2023-09-30T00:30:05;101749.34;;;12.67;100.00
21129;BME280;10722;51.910;8.352;2023-09-30T00:32:50;101756.09;;;12.59;100.00
21129;BME280;10722;51.910;8.352;2023-09-30T00:35:35;101762.88;;;12.55;100.00
21129;BME280;10722;51.910;8.352;2023-09-30T00:38:20;101769.72;;;12.51;100.00
21129;BME280;10722;51.910;8.352;2023-09-30T00:41:06;101770.38;;;12.43;100.00
21129;BME280;10722;51.910;8.352;2023-09-30T00:43:51;101769.50;;;12.42;100.00
21129;BME280;10722;51.910;8.352;2023-09-30T00:46:37;101773.63;;;12.36;100.00
21129;BME280;10722;51.910;8.352;2023-09-30T00:49:24;101784.78;;;12.33;100.00
21129;BME280;10722;51.910;8.352;2023-09-30T00:52:10;101779.75;;;12.38;100.00
21129;BME280;10722;51.910;8.352;2023-09-30T00:54:55;101777.94;;;12.35;100.00
21129;BME280;10722;51.910;8.352;2023-09-30T00:57:41;101781.69;;;12.46;100.00
21129;BME280;10722;51.910;8.352;2023-09-30T01:00:26;101774.28;;;12.60;100.00
21129;BME280;10722;51.910;8.352;2023-09-30T01:03:12;101777.06;;;12.68;100.00
21129;BME280;10722;51.910;8.352;2023-09-30T01:05:57;101780.47;;;12.65;100.00
21129;BME280;10722;51.910;8.352;2023-09-30T01:08:42;101771.97;;;12.71;100.00
21129;BME280;10722;51.910;8.352;2023-09-30T01:11:27;101768.44;;;12.69;100.00
21129;BME280;10722;51.910;8.352;2023-09-30T01:14:26;101777.22;;;12.41;100.00
21129;BME280;10722;51.910;8.352;2023-09-30T01:17:12;101764.75;;;12.61;100.00
21129;BME280;10722;51.910;8.352;2023-09-30T01:19:57;101766.53;;;12.62;100.00
21129;BME280;10722;51.910;8.352;2023-09-30T01:22:43;101753.78;;;12.71;100.00
21129;BME280;10722;51.910;8.352;2023-09-30T01:25:28;101756.69;;;12.83;100.00
21129;BME280;10722;51.910;8.352;2023-09-30T01:28:13;101747.34;;;12.91;100.00
21129;BME280;10722;51.910;8.352;2023-09-30T01:30:58;101756.59;;;12.80;100.00
21129;BME280;10722;51.910;8.352;2023-09-30T01:33:43;101759.97;;;12.76;100.00
21129;BME280;10722;51.910;8.352;2023-09-30T01:36:28;101754.16;;;12.86;100.00
21129;BME280;10722;51.910;8.352;2023-09-30T01:39:13;101745.41;;;12.81;100.00
21129;BME280;10722;51.910;8.352;2023-09-30T01:41:59;101744.41;;;12.77;100.00
21129;BME280;10722;51.910;8.352;2023-09-30T01:44:44;101745.13;;;12.70;100.00
21129;BME280;10722;51.910;8.352;2023-09-30T01:47:29;101739.69;;;12.61;100.00
21129;BME280;10722;51.910;8.352;2023-09-30T01:50:14;101749.34;;;12.67;100.00
21129;BME280;10722;51.910;8.352;2023-09-30T01:52:59;101753.72;;;12.68;100.00
21129;BME280;10722;51.910;8.352;2023-09-30T01:55:44;101746.41;;;12.88;100.00
21129;BME280;10722;51.910;8.352;2023-09-30T01:58:29;101738.81;;;12.95;100.00
21129;BME280;10722;51.910;8.352;2023-09-30T02:01:14;101726.72;;;12.97;100.00
21129;BME280;10722;51.910;8.352;2023-09-30T02:03:59;101740.09;;;12.76;100.00
21129;BME280;10722;51.910;8.352;2023-09-30T02:06:45;101741.88;;;12.79;100.00
21129;BME280;10722;51.910;8.352;2023-09-30T02:09:30;101739.59;;;12.58;100.00
21129;BME280;10722;51.910;8.352;2023-09-30T02:12:15;101755.75;;;12.46;100.00
21129;BME280;10722;51.910;8.352;2023-09-30T02:15:03;101755.66;;;12.42;100.00
21129;BME280;10722;51.910;8.352;2023-09-30T02:17:48;101765.97;;;12.40;100.00
21129;BME280;10722;51.910;8.352;2023-09-30T02:20:33;101783.13;;;12.35;100.00
21129;BME280;10722;51.910;8.352;2023-09-30T02:23:17;101783.56;;;12.50;100.00
21129;BME280;10722;51.910;8.352;2023-09-30T02:26:03;101768.88;;;12.52;100.00
21129;BME280;10722;51.910;8.352;2023-09-30T02:28:48;101772.88;;;12.40;100.00
21129;BME280;10722;51.910;8.352;2023-09-30T02:31:33;101775.63;;;12.46;100.00
21129;BME280;10722;51.910;8.352;2023-09-30T02:34:19;101786.22;;;12.53;100.00
21129;BME280;10722;51.910;8.352;2023-09-30T02:37:03;101786.16;;;12.50;100.00
21129;BME280;10722;51.910;8.352;2023-09-30T02:39:48;101795.75;;;12.53;100.00
21129;BME280;10722;51.910;8.352;2023-09-30T02:42:34;101782.63;;;12.48;100.00
21129;BME280;10722;51.910;8.352;2023-09-30T02:45:19;101778.72;;;12.32;100.00
21129;BME280;10722;51.910;8.352;2023-09-30T02:48:04;101771.03;;;12.36;100.00
21129;BME280;10722;51.910;8.352;2023-09-30T02:50:49;101788.69;;;12.17;100.00
21129;BME280;10722;51.910;8.352;2023-09-30T02:53:34;101794.13;;;12.25;100.00
21129;BME280;10722;51.910;8.352;2023-09-30T02:56:19;101779.94;;;12.45;100.00
21129;BME280;10722;51.910;8.352;2023-09-30T02:59:04;101784.22;;;12.43;100.00
21129;BME280;10722;51.910;8.352;2023-09-30T03:01:49;101779.78;;;12.39;100.00
21129;BME280;10722;51.910;8.352;2023-09-30T03:04:34;101771.75;;;12.30;100.00
21129;BME280;10722;51.910;8.352;2023-09-30T03:07:19;101766.84;;;12.41;100.00
21129;BME280;10722;51.910;8.352;2023-09-30T03:10:05;101765.09;;;12.40;100.00
21129;BME280;10722;51.910;8.352;2023-09-30T03:12:51;101766.63;;;12.33;100.00
21129;BME280;10722;51.910;8.352;2023-09-30T03:15:36;101766.81;;;12.39;100.00
21129;BME280;10722;51.910;8.352;2023-09-30T03:18:21;101767.72;;;12.41;100.00
21129;BME280;10722;51.910;8.352;2023-09-30T03:21:13;101773.91;;;12.46;100.00
21129;BME280;10722;51.910;8.352;2023-09-30T03:23:58;101780.03;;;12.48;100.00
21129;BME280;10722;51.910;8.352;2023-09-30T03:26:43;101783.72;;;12.25;100.00
21129;BME280;10722;51.910;8.352;2023-09-30T03:29:29;101773.06;;;12.14;100.00
21129;BME280;10722;51.910;8.352;2023-09-30T03:32:14;101781.94;;;11.92;100.00
21129;BME280;10722;51.910;8.352;2023-09-30T03:34:59;101784.25;;;11.83;100.00
21129;BME280;10722;51.910;8.352;2023-09-30T03:37:45;101775.63;;;11.84;100.00
21129;BME280;10722;51.910;8.352;2023-09-30T03:40:31;101792.16;;;11.87;100.00
21129;BME280;10722;51.910;8.352;2023-09-30T03:43:16;101798.06;;;11.83;100.00
21129;BME280;10722;51.910;8.352;2023-09-30T03:46:01;101781.66;;;11.83;100.00
21129;BME280;10722;51.910;8.352;2023-09-30T03:48:46;101775.72;;;11.85;100.00
21129;BME280;10722;51.910;8.352;2023-09-30T03:51:31;101774.00;;;11.86;100.00
21129;BME280;10722;51.910;8.352;2023-09-30T03:54:17;101778.47;;;11.92;100.00
21129;BME280;10722;51.910;8.352;2023-09-30T03:57:02;101775.34;;;12.03;100.00
21129;BME280;10722;51.910;8.352;2023-09-30T03:59:47;101780.28;;;11.94;100.00
21129;BME280;10722;51.910;8.352;2023-09-30T04:02:33;101788.69;;;11.87;100.00
21129;BME280;10722;51.910;8.352;2023-09-30T04:05:18;101792.00;;;11.83;100.00
21129;BME280;10722;51.910;8.352;2023-09-30T04:08:03;101793.97;;;11.90;100.00
21129;BME280;10722;51.910;8.352;2023-09-30T04:10:48;101784.09;;;11.78;100.00
21129;BME280;10722;51.910;8.352;2023-09-30T04:13:33;101784.53;;;11.92;100.00
21129;BME280;10722;51.910;8.352;2023-09-30T04:16:18;101775.63;;;11.84;100.00
21129;BME280;10722;51.910;8.352;2023-09-30T04:19:03;101773.19;;;11.88;100.00
21129;BME280;10722;51.910;8.352;2023-09-30T04:21:48;101781.25;;;11.71;100.00
21129;BME280;10722;51.910;8.352;2023-09-30T04:24:33;101776.06;;;11.71;100.00
21129;BME280;10722;51.910;8.352;2023-09-30T04:27:18;101778.66;;;11.71;100.00
21129;BME280;10722;51.910;8.352;2023-09-30T04:30:04;101780.47;;;11.73;100.00
21129;BME280;10722;51.910;8.352;2023-09-30T04:32:49;101787.13;;;11.63;100.00
21129;BME280;10722;51.910;8.352;2023-09-30T04:35:34;101787.31;;;11.71;100.00
21129;BME280;10722;51.910;8.352;2023-09-30T04:38:19;101782.47;;;11.82;100.00
21129;BME280;10722;51.910;8.352;2023-09-30T04:41:05;101777.66;;;11.65;100.00
21129;BME280;10722;51.910;8.352;2023-09-30T04:43:49;101784.88;;;11.76;100.00
21129;BME280;10722;51.910;8.352;2023-09-30T04:46:34;101777.78;;;11.69;100.00
21129;BME280;10722;51.910;8.352;2023-09-30T04:49:19;101789.81;;;11.95;100.00
21129;BME280;10722;51.910;8.352;2023-09-30T04:52:04;101800.69;;;11.85;100.00
21129;BME280;10722;51.910;8.352;2023-09-30T04:54:49;101803.56;;;11.65;100.00
21129;BME280;10722;51.910;8.352;2023-09-30T04:57:35;101803.31;;;11.56;100.00
21129;BME280;10722;51.910;8.352;2023-09-30T05:00:20;101803.28;;;11.55;100.00
21129;BME280;10722;51.910;8.352;2023-09-30T05:03:05;101804.16;;;11.57;100.00
21129;BME280;10722;51.910;8.352;2023-09-30T05:05:52;101796.50;;;11.60;100.00
21129;BME280;10722;51.910;8.352;2023-09-30T05:08:37;101804.50;;;11.67;100.00
21129;BME280;10722;51.910;8.352;2023-09-30T05:11:22;101808.66;;;11.62;100.00
21129;BME280;10722;51.910;8.352;2023-09-30T05:14:06;101802.50;;;11.59;100.00
21129;BME280;10722;51.910;8.352;2023-09-30T05:16:51;101815.53;;;11.60;100.00
21129;BME280;10722;51.910;8.352;2023-09-30T05:19:37;101819.94;;;11.63;100.00
21129;BME280;10722;51.910;8.352;2023-09-30T05:22:22;101823.44;;;11.65;100.00
21129;BME280;10722;51.910;8.352;2023-09-30T05:25:07;101834.41;;;11.85;100.00
21129;BME280;10722;51.910;8.352;2023-09-30T05:27:52;101830.28;;;11.90;100.00
21129;BME280;10722;51.910;8.352;2023-09-30T05:30:37;101826.91;;;11.93;100.00
21129;BME280;10722;51.910;8.352;2023-09-30T05:33:22;101831.38;;;11.98;100.00
21129;BME280;10722;51.910;8.352;2023-09-30T05:36:07;101829.78;;;11.75;100.00
21129;BME280;10722;51.910;8.352;2023-09-30T05:38:52;101817.31;;;11.90;100.00
21129;BME280;10722;51.910;8.352;2023-09-30T05:41:38;101818.81;;;11.83;100.00
21129;BME280;10722;51.910;8.352;2023-09-30T05:44:23;101823.13;;;11.83;100.00
21129;BME280;10722;51.910;8.352;2023-09-30T05:47:08;101817.72;;;11.77;100.00
21129;BME280;10722;51.910;8.352;2023-09-30T05:49:53;101820.91;;;11.66;100.00
21129;BME280;10722;51.910;8.352;2023-09-30T05:52:38;101836.56;;;11.71;100.00
21129;BME280;10722;51.910;8.352;2023-09-30T05:55:23;101841.06;;;11.77;100.00
21129;BME280;10722;51.910;8.352;2023-09-30T05:58:09;101848.84;;;11.77;100.00
21129;BME280;10722;51.910;8.352;2023-09-30T06:00:54;101854.84;;;11.74;100.00
21129;BME280;10722;51.910;8.352;2023-09-30T06:03:39;101855.56;;;11.70;100.00
21129;BME280;10722;51.910;8.352;2023-09-30T06:06:25;101870.72;;;11.85;100.00
21129;BME280;10722;51.910;8.352;2023-09-30T06:09:09;101862.84;;;11.82;100.00
21129;BME280;10722;51.910;8.352;2023-09-30T06:11:54;101861.56;;;11.96;100.00
21129;BME280;10722;51.910;8.352;2023-09-30T06:14:39;101870.72;;;11.85;100.00
21129;BME280;10722;51.910;8.352;2023-09-30T06:17:24;101889.97;;;11.92;100.00
21129;BME280;10722;51.910;8.352;2023-09-30T06:20:10;101878.47;;;11.83;100.00
21129;BME280;10722;51.910;8.352;2023-09-30T06:22:55;101882.22;;;11.93;100.00
21129;BME280;10722;51.910;8.352;2023-09-30T06:25:41;101880.38;;;11.89;100.00
21129;BME280;10722;51.910;8.352;2023-09-30T06:28:27;101879.69;;;11.95;100.00
21129;BME280;10722;51.910;8.352;2023-09-30T06:31:11;101880.72;;;12.00;100.00
21129;BME280;10722;51.910;8.352;2023-09-30T06:33:57;101882.81;;;12.42;100.00
21129;BME280;10722;51.910;8.352;2023-09-30T06:36:42;101893.91;;;12.36;100.00
21129;BME280;10722;51.910;8.352;2023-09-30T06:39:27;101878.59;;;12.45;100.00
21129;BME280;10722;51.910;8.352;2023-09-30T06:42:13;101881.19;;;12.77;100.00
21129;BME280;10722;51.910;8.352;2023-09-30T06:44:58;101875.50;;;12.92;100.00
21129;BME280;10722;51.910;8.352;2023-09-30T06:47:43;101865.38;;;13.01;100.00
21129;BME280;10722;51.910;8.352;2023-09-30T06:50:28;101865.81;;;13.19;100.00
21129;BME280;10722;51.910;8.352;2023-09-30T06:53:16;101862.81;;;13.37;100.00
21129;BME280;10722;51.910;8.352;2023-09-30T06:56:05;101866.25;;;13.73;100.00
21129;BME280;10722;51.910;8.352;2023-09-30T06:58:50;101859.47;;;13.79;100.00
21129;BME280;10722;51.910;8.352;2023-09-30T07:01:35;101852.72;;;14.30;100.00
21129;BME280;10722;51.910;8.352;2023-09-30T07:04:20;101836.97;;;14.22;100.00
21129;BME280;10722;51.910;8.352;2023-09-30T07:07:05;101831.78;;;14.24;100.00
21129;BME280;10722;51.910;8.352;2023-09-30T07:09:50;101840.09;;;14.50;100.00
21129;BME280;10722;51.910;8.352;2023-09-30T07:12:35;101832.63;;;14.67;100.00
21129;BME280;10722;51.910;8.352;2023-09-30T07:15:21;101819.81;;;14.77;100.00
21129;BME280;10722;51.910;8.352;2023-09-30T07:18:08;101813.63;;;14.71;100.00
21129;BME280;10722;51.910;8.352;2023-09-30T07:20:53;101804.91;;;15.20;100.00
21129;BME280;10722;51.910;8.352;2023-09-30T07:23:38;101801.56;;;15.88;99.41
21129;BME280;10722;51.910;8.352;2023-09-30T07:26:26;101774.81;;;16.06;96.75
21129;BME280;10722;51.910;8.352;2023-09-30T07:29:11;101765.81;;;15.80;95.51
21129;BME280;10722;51.910;8.352;2023-09-30T07:31:56;101771.03;;;15.80;95.04
21129;BME280;10722;51.910;8.352;2023-09-30T07:34:42;101765.13;;;15.98;94.34
21129;BME280;10722;51.910;8.352;2023-09-30T07:37:27;101757.63;;;16.27;93.09
21129;BME280;10722;51.910;8.352;2023-09-30T07:40:12;101755.44;;;15.86;92.78
21129;BME280;10722;51.910;8.352;2023-09-30T07:42:58;101766.81;;;15.93;92.83
21129;BME280;10722;51.910;8.352;2023-09-30T07:45:43;101750.94;;;15.74;91.97
21129;BME280;10722;51.910;8.352;2023-09-30T07:48:28;101810.91;;;15.16;95.07
21129;BME280;10722;51.910;8.352;2023-09-30T07:51:13;101851.59;;;15.60;97.05
21129;BME280;10722;51.910;8.352;2023-09-30T07:53:58;101858.13;;;15.33;97.39
21129;BME280;10722;51.910;8.352;2023-09-30T07:57:03;101865.28;;;14.95;98.07
21129;BME280;10722;51.910;8.352;2023-09-30T07:59:48;101882.53;;;14.87;99.61
21129;BME280;10722;51.910;8.352;2023-09-30T08:02:33;101887.56;;;15.26;100.00
21129;BME280;10722;51.910;8.352;2023-09-30T08:05:18;101885.53;;;15.10;100.00
21129;BME280;10722;51.910;8.352;2023-09-30T08:08:03;101895.78;;;15.00;100.00
21129;BME280;10722;51.910;8.352;2023-09-30T08:10:48;101900.88;;;14.94;100.00
21129;BME280;10722;51.910;8.352;2023-09-30T08:13:33;101911.03;;;14.79;100.00
21129;BME280;10722;51.910;8.352;2023-09-30T08:16:18;101915.94;;;15.09;100.00
21129;BME280;10722;51.910;8.352;2023-09-30T08:19:06;101917.88;;;15.21;100.00
21129;BME280;10722;51.910;8.352;2023-09-30T08:21:51;101905.03;;;15.32;100.00
21129;BME280;10722;51.910;8.352;2023-09-30T08:24:36;101897.75;;;15.65;100.00
21129;BME280;10722;51.910;8.352;2023-09-30T08:27:21;101896.50;;;15.40;99.66
21129;BME280;10722;51.910;8.352;2023-09-30T08:30:07;101906.41;;;15.10;100.00
21129;BME280;10722;51.910;8.352;2023-09-30T08:32:52;101923.16;;;15.25;100.00
21129;BME280;10722;51.910;8.352;2023-09-30T08:35:37;101916.81;;;15.61;100.00
21129;BME280;10722;51.910;8.352;2023-09-30T08:38:22;101906.53;;;16.31;100.00
21129;BME280;10722;51.910;8.352;2023-09-30T08:41:08;101873.34;;;15.62;98.77
21129;BME280;10722;51.910;8.352;2023-09-30T08:43:55;101882.50;;;15.93;99.11
21129;BME280;10722;51.910;8.352;2023-09-30T08:46:44;101872.28;;;16.08;97.27
21129;BME280;10722;51.910;8.352;2023-09-30T08:49:34;101874.59;;;15.85;96.69
21129;BME280;10722;51.910;8.352;2023-09-30T08:52:19;101875.22;;;15.69;96.77
21129;BME280;10722;51.910;8.352;2023-09-30T08:55:06;101864.09;;;15.26;96.42
21129;BME280;10722;51.910;8.352;2023-09-30T08:57:52;101898.16;;;15.37;97.90
21129;BME280;10722;51.910;8.352;2023-09-30T09:00:38;101896.59;;;15.48;97.59
21129;BME280;10722;51.910;8.352;2023-09-30T09:03:23;101899.00;;;15.36;97.22
21129;BME280;10722;51.910;8.352;2023-09-30T09:06:09;101903.63;;;15.54;97.79
21129;BME280;10722;51.910;8.352;2023-09-30T09:08:53;101898.59;;;15.63;97.48
21129;BME280;10722;51.910;8.352;2023-09-30T09:11:38;101902.50;;;15.91;96.65
21129;BME280;10722;51.910;8.352;2023-09-30T09:14:40;101880.72;;;15.90;95.78
21129;BME280;10722;51.910;8.352;2023-09-30T09:17:43;101875.47;;;15.87;95.17
21129;BME280;10722;51.910;8.352;2023-09-30T09:20:28;101884.25;;;15.91;95.24
21129;BME280;10722;51.910;8.352;2023-09-30T09:23:14;101876.69;;;16.12;95.18
21129;BME280;10722;51.910;8.352;2023-09-30T09:26:00;101870.84;;;16.32;94.83
21129;BME280;10722;51.910;8.352;2023-09-30T09:28:46;101855.84;;;16.14;93.89
21129;BME280;10722;51.910;8.352;2023-09-30T09:31:32;101851.59;;;16.24;93.26
21129;BME280;10722;51.910;8.352;2023-09-30T09:34:17;101863.09;;;16.40;93.23
21129;BME280;10722;51.910;8.352;2023-09-30T09:37:32;101842.47;;;16.64;91.61
21129;BME280;10722;51.910;8.352;2023-09-30T09:40:22;101838.31;;;16.78;91.27
21129;BME280;10722;51.910;8.352;2023-09-30T09:43:09;101814.94;;;16.95;90.21
21129;BME280;10722;51.910;8.352;2023-09-30T09:45:55;101795.72;;;16.90;88.30
21129;BME280;10722;51.910;8.352;2023-09-30T09:48:42;101794.16;;;17.15;87.73
21129;BME280;10722;51.910;8.352;2023-09-30T09:51:30;101796.06;;;17.38;87.86
21129;BME280;10722;51.910;8.352;2023-09-30T09:54:16;101766.28;;;17.17;85.81
21129;BME280;10722;51.910;8.352;2023-09-30T09:57:03;101759.16;;;16.96;85.67
21129;BME280;10722;51.910;8.352;2023-09-30T09:59:50;101750.38;;;16.85;84.89
21129;BME280;10722;51.910;8.352;2023-09-30T10:02:36;101753.81;;;16.79;85.38
21129;BME280;10722;51.910;8.352;2023-09-30T10:05:21;101749.34;;;16.72;84.78
21129;BME280;10722;51.910;8.352;2023-09-30T10:08:11;101758.03;;;16.68;84.76
21129;BME280;10722;51.910;8.352;2023-09-30T10:10:56;101766.91;;;16.86;84.97
21129;BME280;10722;51.910;8.352;2023-09-30T10:13:51;101747.72;;;16.79;84.00
21129;BME280;10722;51.910;8.352;2023-09-30T10:19:23;101782.69;;;16.96;84.26
21129;BME280;10722;51.910;8.352;2023-09-30T10:25:32;101756.81;;;17.39;82.37
21129;BME280;10722;51.910;8.352;2023-09-30T10:31:22;101761.41;;;16.58;82.28
21129;BME280;10722;51.910;8.352;2023-09-30T10:36:52;101784.66;;;17.27;82.25
21129;BME280;10722;51.910;8.352;2023-09-30T10:39:57;101769.16;;;17.59;81.63
21129;BME280;10722;51.910;8.352;2023-09-30T10:42:49;101703.75;;;17.57;78.92
21129;BME280;10722;51.910;8.352;2023-09-30T10:51:17;101713.38;;;17.69;76.88
21129;BME280;10722;51.910;8.352;2023-09-30T10:54:03;101695.91;;;17.62;76.01
21129;BME280;10722;51.910;8.352;2023-09-30T10:56:48;101684.63;;;17.77;75.28
21129;BME280;10722;51.910;8.352;2023-09-30T10:59:33;101712.66;;;18.13;75.76
21129;BME280;10722;51.910;8.352;2023-09-30T11:02:19;101728.41;;;18.19;75.98
21129;BME280;10722;51.910;8.352;2023-09-30T11:05:09;101746.75;;;18.34;76.34
21129;BME280;10722;51.910;8.352;2023-09-30T11:07:57;101739.78;;;18.49;75.45
21129;BME280;10722;51.910;8.352;2023-09-30T11:10:49;101685.63;;;18.57;72.64
21129;BME280;10722;51.910;8.352;2023-09-30T11:13:36;101690.91;;;18.78;72.48
21129;BME280;10722;51.910;8.352;2023-09-30T11:16:21;101704.88;;;18.96;72.51
21129;BME280;10722;51.910;8.352;2023-09-30T11:19:06;101703.06;;;19.12;71.86
21129;BME280;10722;51.910;8.352;2023-09-30T11:21:54;101681.22;;;19.10;70.37
21129;BME280;10722;51.910;8.352;2023-09-30T11:24:40;101658.53;;;18.69;69.82
21129;BME280;10722;51.910;8.352;2023-09-30T11:27:26;101658.56;;;18.81;68.86
21129;BME280;10722;51.910;8.352;2023-09-30T11:30:12;101706.63;;;18.81;70.87
21129;BME280;10722;51.910;8.352;2023-09-30T11:33:00;101740.66;;;18.51;72.14
21129;BME280;10722;51.910;8.352;2023-09-30T11:38:46;101766.84;;;18.34;73.52
21129;BME280;10722;51.910;8.352;2023-09-30T11:41:37;101796.50;;;18.27;74.10
21129;BME280;10722;51.910;8.352;2023-09-30T11:44:24;101786.03;;;18.30;73.92
21129;BME280;10722;51.910;8.352;2023-09-30T11:47:09;101773.81;;;18.41;74.19
21129;BME280;10722;51.910;8.352;2023-09-30T11:49:55;101767.75;;;18.53;73.99
21129;BME280;10722;51.910;8.352;2023-09-30T11:52:44;101737.16;;;18.58;72.60
21129;BME280;10722;51.910;8.352;2023-09-30T11:55:29;101694.34;;;18.21;71.12
21129;BME280;10722;51.910;8.352;2023-09-30T11:58:14;101724.91;;;18.38;72.04
21129;BME280;10722;51.910;8.352;2023-09-30T12:00:59;101740.63;;;18.26;72.60
21129;BME280;10722;51.910;8.352;2023-09-30T12:03:44;101730.13;;;18.19;72.27
21129;BME280;10722;51.910;8.352;2023-09-30T12:06:29;101710.88;;;18.04;71.63
21129;BME280;10722;51.910;8.352;2023-09-30T12:09:15;101687.34;;;18.03;70.90
21129;BME280;10722;51.910;8.352;2023-09-30T12:12:00;101670.78;;;18.14;70.21
21129;BME280;10722;51.910;8.352;2023-09-30T12:14:46;101642.81;;;18.24;68.64
21129;BME280;10722;51.910;8.352;2023-09-30T12:17:31;101619.25;;;17.86;68.24
21129;BME280;10722;51.910;8.352;2023-09-30T12:20:16;101637.47;;;17.64;68.45
21129;BME280;10722;51.910;8.352;2023-09-30T12:23:02;101630.56;;;17.83;68.14
21129;BME280;10722;51.910;8.352;2023-09-30T12:25:48;101649.81;;;18.37;68.17
21129;BME280;10722;51.910;8.352;2023-09-30T12:28:51;101628.84;;;18.64;67.37
21129;BME280;10722;51.910;8.352;2023-09-30T12:31:36;101596.50;;;18.72;66.44
21129;BME280;10722;51.910;8.352;2023-09-30T12:34:37;101583.47;;;18.25;65.50
21129;BME280;10722;51.910;8.352;2023-09-30T12:37:24;101600.94;;;18.33;65.93
21129;BME280;10722;51.910;8.352;2023-09-30T12:40:10;101636.59;;;19.19;66.07
21129;BME280;10722;51.910;8.352;2023-09-30T12:42:55;101585.41;;;20.01;63.29
21129;BME280;10722;51.910;8.352;2023-09-30T12:45:41;101527.56;;;20.10;60.90
21129;BME280;10722;51.910;8.352;2023-09-30T12:48:26;101546.28;;;19.69;62.00
21129;BME280;10722;51.910;8.352;2023-09-30T12:51:12;101575.00;;;19.89;62.30
21129;BME280;10722;51.910;8.352;2023-09-30T12:53:58;101579.22;;;20.99;61.11
21129;BME280;10722;51.910;8.352;2023-09-30T12:56:43;101515.78;;;21.81;57.83
21129;BME280;10722;51.910;8.352;2023-09-30T12:59:28;101477.41;;;22.64;55.70
21129;BME280;10722;51.910;8.352;2023-09-30T13:02:13;101459.59;;;21.25;56.54
21129;BME280;10722;51.910;8.352;2023-09-30T13:04:58;101506.25;;;21.14;57.73
21129;BME280;10722;51.910;8.352;2023-09-30T13:07:43;101575.81;;;21.59;59.76
21129;BME280;10722;51.910;8.352;2023-09-30T13:10:28;101506.56;;;22.55;56.22
21129;BME280;10722;51.910;8.352;2023-09-30T13:13:13;101423.34;;;21.95;54.11
21129;BME280;10722;51.910;8.352;2023-09-30T13:16:02;101426.56;;;20.37;55.85
21129;BME280;10722;51.910;8.352;2023-09-30T13:18:48;101523.66;;;19.45;59.64
21129;BME280;10722;51.910;8.352;2023-09-30T13:21:33;101540.50;;;19.02;60.48
21129;BME280;10722;51.910;8.352;2023-09-30T13:24:19;101546.53;;;19.21;60.10
21129;BME280;10722;51.910;8.352;2023-09-30T13:27:04;101566.53;;;19.39;61.10
21129;BME280;10722;51.910;8.352;2023-09-30T13:29:48;101515.22;;;18.86;59.77
21129;BME280;10722;51.910;8.352;2023-09-30T13:32:34;101542.25;;;18.97;60.65
21129;BME280;10722;51.910;8.352;2023-09-30T13:35:19;101564.19;;;18.78;61.39
21129;BME280;10722;51.910;8.352;2023-09-30T13:38:04;101580.78;;;18.85;62.41
21129;BME280;10722;51.910;8.352;2023-09-30T13:40:49;101576.44;;;18.51;62.56
21129;BME280;10722;51.910;8.352;2023-09-30T13:43:34;101610.50;;;18.85;62.96
21129;BME280;10722;51.910;8.352;2023-09-30T13:46:19;101593.91;;;18.78;63.09
21129;BME280;10722;51.910;8.352;2023-09-30T13:49:05;101577.31;;;18.55;62.16
21129;BME280;10722;51.910;8.352;2023-09-30T13:51:50;101612.25;;;18.49;63.36
21129;BME280;10722;51.910;8.352;2023-09-30T13:54:36;101598.28;;;18.38;62.87
21129;BME280;10722;51.910;8.352;2023-09-30T13:57:21;101605.28;;;18.34;62.76
21129;BME280;10722;51.910;8.352;2023-09-30T14:00:07;101619.25;;;18.44;63.72
21129;BME280;10722;51.910;8.352;2023-09-30T14:02:52;101600.03;;;18.50;63.56
21129;BME280;10722;51.910;8.352;2023-09-30T14:05:38;101596.53;;;18.55;62.76
21129;BME280;10722;51.910;8.352;2023-09-30T14:08:23;101595.69;;;18.47;63.32
21129;BME280;10722;51.910;8.352;2023-09-30T14:11:09;101624.47;;;18.73;64.24
21129;BME280;10722;51.910;8.352;2023-09-30T14:13:54;101589.56;;;18.47;63.59
21129;BME280;10722;51.910;8.352;2023-09-30T14:16:39;101590.47;;;18.27;64.04
21129;BME280;10722;51.910;8.352;2023-09-30T14:19:24;101606.19;;;18.30;64.90
21129;BME280;10722;51.910;8.352;2023-09-30T14:22:09;101613.16;;;18.31;65.42
21129;BME280;10722;51.910;8.352;2023-09-30T14:24:55;101609.66;;;18.48;64.75
21129;BME280;10722;51.910;8.352;2023-09-30T14:27:40;101611.38;;;18.84;64.81
21129;BME280;10722;51.910;8.352;2023-09-30T14:30:26;101606.00;;;19.16;63.88
21129;BME280;10722;51.910;8.352;2023-09-30T14:33:10;101570.09;;;19.31;62.90
21129;BME280;10722;51.910;8.352;2023-09-30T14:35:55;101531.63;;;19.30;62.09
21129;BME280;10722;51.910;8.352;2023-09-30T14:38:45;101525.53;;;19.20;62.20
21129;BME280;10722;51.910;8.352;2023-09-30T14:41:36;101537.13;;;18.76;63.25
21129;BME280;10722;51.910;8.352;2023-09-30T14:44:21;101556.34;;;18.64;63.81